createdAt,value
2023-03-27T00:00:28.813Z,98426.22
2023-03-27T00:01:31.521Z,98424.60
2023-03-27T00:02:33.809Z,98423.84
2023-03-27T00:03:38.027Z,98420.22
2023-03-27T00:04:41.862Z,98423.88
2023-03-27T00:05:45.439Z,98421.75
2023-03-27T00:06:48.542Z,98426.47
2023-03-27T00:07:51.711Z,98422.38
2023-03-27T00:08:54.061Z,98411.67
2023-03-27T00:09:57.009Z,98422.14
2023-03-27T00:11:02.260Z,98421.18
2023-03-27T00:12:05.498Z,98418.96
2023-03-27T00:13:10.587Z,98414.64
2023-03-27T00:14:13.520Z,98414.64
2023-03-27T00:15:16.637Z,98412.97
2023-03-27T00:16:22.217Z,98414.64
2023-03-27T00:17:24.518Z,98414.48
2023-03-27T00:18:30.475Z,98413.17
2023-03-27T00:19:33.679Z,98417.21
2023-03-27T00:20:36.854Z,98416.90
2023-03-27T00:21:39.837Z,98411.42
2023-03-27T00:22:42.825Z,98415.00
2023-03-27T00:23:46.232Z,98418.58
2023-03-27T00:24:48.550Z,98417.98
2023-03-27T00:25:51.693Z,98410.37
2023-03-27T00:26:54.910Z,98413.80
2023-03-27T00:27:58.223Z,98413.13
2023-03-27T00:29:02.265Z,98417.52
2023-03-27T00:30:06.105Z,98415.84
2023-03-27T00:31:14.075Z,98415.76
2023-03-27T00:32:17.304Z,98414.17
2023-03-27T00:33:19.546Z,98412.49
2023-03-27T00:34:21.704Z,98418.42
2023-03-27T00:35:25.967Z,98417.52
2023-03-27T00:36:29.019Z,98424.37
2023-03-27T00:37:31.712Z,98420.19
2023-03-27T00:38:34.306Z,98421.78
2023-03-27T00:39:36.889Z,98417.52
2023-03-27T00:40:40.757Z,98417.66
2023-03-27T00:41:43.976Z,98418.59
2023-03-27T00:42:48.684Z,98423.00
2023-03-27T00:43:54.101Z,98420.41
2023-03-27T00:44:56.914Z,98413.34
2023-03-27T00:46:05.254Z,98416.02
2023-03-27T00:47:11.498Z,98410.68
2023-03-27T00:48:15.285Z,98416.16
2023-03-27T00:49:17.875Z,98414.34
2023-03-27T00:50:29.965Z,98409.77
2023-03-27T00:51:35.200Z,98412.35
2023-03-27T00:52:41.813Z,98413.27
2023-03-27T00:53:47.097Z,98414.85
2023-03-27T00:54:49.652Z,98417.52
2023-03-27T00:55:55.078Z,98415.02
2023-03-27T00:57:01.126Z,98415.70
2023-03-27T00:58:07.033Z,98414.03
2023-03-27T00:59:15.938Z,98414.25
2023-03-27T01:00:19.444Z,98416.84
2023-03-27T01:01:26.619Z,98417.28
2023-03-27T01:02:29.232Z,98424.30
2023-03-27T01:03:32.649Z,98417.23
2023-03-27T01:04:36.941Z,98421.45
2023-03-27T01:05:39.517Z,98417.06
2023-03-27T01:06:43.857Z,98419.95
2023-03-27T01:08:00.801Z,98426.93
2023-03-27T01:08:52.737Z,98419.35
2023-03-27T01:09:55.895Z,98423.61
2023-03-27T01:11:08.555Z,98423.44
2023-03-27T01:12:20.886Z,98428.83
2023-03-27T01:13:30.502Z,98426.25
2023-03-27T01:14:36.408Z,98418.44
2023-03-27T01:15:54.454Z,98425.56
2023-03-27T01:17:20.556Z,98428.09
2023-03-27T01:18:45.706Z,98423.61
2023-03-27T01:21:19.801Z,98422.92
2023-03-27T01:22:43.415Z,98425.39
2023-03-27T01:24:01.503Z,98422.67
2023-03-27T01:25:32.186Z,98420.09
2023-03-27T01:27:10.038Z,98428.91
2023-03-27T01:28:32.646Z,98424.48
2023-03-27T01:30:10.148Z,98429.81
2023-03-27T01:31:19.097Z,98425.64
2023-03-27T01:32:41.731Z,98424.09
2023-03-27T01:34:04.505Z,98417.80
2023-03-27T01:35:17.037Z,98418.63
2023-03-27T01:36:52.309Z,98425.34
2023-03-27T01:38:09.647Z,98419.78
2023-03-27T01:39:18.745Z,98420.52
2023-03-27T01:40:38.582Z,98421.30
2023-03-27T01:41:50.428Z,98425.17
2023-03-27T01:43:08.543Z,98417.64
2023-03-27T01:44:20.514Z,98429.65
2023-03-27T01:45:43.295Z,98424.56
2023-03-27T01:46:49.259Z,98429.81
2023-03-27T01:47:57.955Z,98422.28
2023-03-27T01:49:06.646Z,98420.61
2023-03-27T01:50:20.392Z,98428.14
2023-03-27T01:51:32.796Z,98427.28
2023-03-27T01:52:38.796Z,98427.53
2023-03-27T01:53:48.841Z,98424.04
2023-03-27T01:54:57.836Z,98426.84
2023-03-27T01:56:07.565Z,98423.27
2023-03-27T01:57:28.416Z,98431.79
2023-03-27T01:58:46.363Z,98430.72
2023-03-27T02:00:17.410Z,98430.55
2023-03-27T02:01:19.703Z,98431.54
2023-03-27T02:02:31.902Z,98431.02
2023-03-27T02:03:37.707Z,98434.50
2023-03-27T02:04:47.389Z,98429.13
2023-03-27T02:05:57.747Z,98425.08
2023-03-27T02:07:06.480Z,98431.92
2023-03-27T02:09:31.199Z,98411.22
2023-03-27T02:10:37.540Z,98421.00
2023-03-27T02:11:48.534Z,98418.11
2023-03-27T02:12:55.366Z,98421.33
2023-03-27T02:14:05.355Z,98422.53
2023-03-27T02:15:23.897Z,98419.64
2023-03-27T02:16:21.849Z,98420.03
2023-03-27T02:17:28.170Z,98426.88
2023-03-27T02:18:35.298Z,98432.73
2023-03-27T02:19:41.414Z,98430.88
2023-03-27T02:20:44.828Z,98428.16
2023-03-27T02:21:47.611Z,98426.62
2023-03-27T02:22:50.881Z,98427.26
2023-03-27T02:23:54.787Z,98429.67
2023-03-27T02:24:56.975Z,98433.84
2023-03-27T02:26:01.178Z,98432.85
2023-03-27T02:27:08.508Z,98431.34
2023-03-27T02:28:14.214Z,98427.94
2023-03-27T02:29:47.019Z,98432.34
2023-03-27T02:31:05.405Z,98429.46
2023-03-27T02:32:20.937Z,98434.90
2023-03-27T02:33:54.988Z,98431.27
2023-03-27T02:35:19.668Z,98444.41
2023-03-27T02:36:28.986Z,98442.89
2023-03-27T02:37:47.422Z,98443.20
2023-03-27T02:38:58.127Z,98444.02
2023-03-27T02:40:10.684Z,98446.05
2023-03-27T02:41:28.763Z,98452.36
2023-03-27T02:42:45.523Z,98455.02
2023-03-27T02:44:10.271Z,98456.06
2023-03-27T02:46:38.433Z,98455.93
2023-03-27T02:47:44.989Z,98453.13
2023-03-27T02:48:50.960Z,98456.05
2023-03-27T02:49:56.979Z,98450.76
2023-03-27T02:51:06.090Z,98450.47
2023-03-27T02:53:27.991Z,98450.01
2023-03-27T02:54:42.511Z,98449.70
2023-03-27T02:55:49.439Z,98455.55
2023-03-27T02:56:55.600Z,98456.83
2023-03-27T02:58:03.639Z,98461.41
2023-03-27T02:59:18.557Z,98464.64
2023-03-27T03:00:24.074Z,98469.44
2023-03-27T03:01:30.877Z,98473.49
2023-03-27T03:02:37.505Z,98466.53
2023-03-27T03:03:48.131Z,98473.37
2023-03-27T03:06:15.222Z,98472.18
2023-03-27T03:07:18.054Z,98478.66
2023-03-27T03:08:20.993Z,98478.73
2023-03-27T03:09:24.859Z,98478.66
2023-03-27T03:10:27.755Z,98486.34
2023-03-27T03:11:31.215Z,98489.63
2023-03-27T03:12:34.810Z,98481.60
2023-03-27T03:13:37.864Z,98481.45
2023-03-27T03:14:43.835Z,98481.31
2023-03-27T03:15:47.207Z,98486.77
2023-03-27T03:16:51.162Z,98487.09
2023-03-27T03:17:53.794Z,98489.19
2023-03-27T03:18:56.541Z,98487.04
2023-03-27T03:19:59.151Z,98486.91
2023-03-27T03:21:01.664Z,98491.78
2023-03-27T03:22:05.384Z,98484.78
2023-03-27T03:23:08.511Z,98485.84
2023-03-27T03:24:11.734Z,98492.13
2023-03-27T03:25:14.012Z,98493.57
2023-03-27T03:26:17.783Z,98493.57
2023-03-27T03:27:22.050Z,98502.24
2023-03-27T03:28:38.229Z,98495.41
2023-03-27T03:29:42.205Z,98500.00
2023-03-27T03:30:49.850Z,98498.20
2023-03-27T03:31:53.440Z,98502.38
2023-03-27T03:32:56.730Z,98500.84
2023-03-27T03:34:01.879Z,98502.80
2023-03-27T03:35:04.833Z,98505.04
2023-03-27T03:36:10.120Z,98505.55
2023-03-27T03:37:14.694Z,98500.82
2023-03-27T03:38:27.432Z,98502.92
2023-03-27T03:39:30.400Z,98503.05
2023-03-27T03:40:34.158Z,98503.83
2023-03-27T03:41:37.354Z,98497.69
2023-03-27T03:42:49.169Z,98502.30
2023-03-27T03:43:51.854Z,98497.89
2023-03-27T03:44:54.184Z,98499.84
2023-03-27T03:45:58.666Z,98508.63
2023-03-27T03:47:01.139Z,98508.05
2023-03-27T03:48:03.557Z,98506.69
2023-03-27T03:49:06.650Z,98509.77
2023-03-27T03:50:11.199Z,98509.48
2023-03-27T03:51:13.521Z,98510.31
2023-03-27T03:52:16.736Z,98516.33
2023-03-27T03:53:21.025Z,98512.11
2023-03-27T03:54:23.674Z,98508.91
2023-03-27T03:55:26.286Z,98518.17
2023-03-27T03:56:30.431Z,98514.22
2023-03-27T03:57:32.994Z,98513.13
2023-03-27T03:58:37.867Z,98516.17
2023-03-27T03:59:40.459Z,98517.73
2023-03-27T04:01:01.997Z,98520.16
2023-03-27T04:02:06.316Z,98521.63
2023-03-27T04:03:10.349Z,98520.52
2023-03-27T04:04:13.841Z,98531.67
2023-03-27T04:05:27.608Z,98524.13
2023-03-27T04:06:34.233Z,98521.42
2023-03-27T04:07:39.115Z,98530.69
2023-03-27T04:09:01.801Z,98522.33
2023-03-27T04:10:08.199Z,98521.61
2023-03-27T04:11:10.611Z,98521.96
2023-03-27T04:12:21.370Z,98519.46
2023-03-27T04:13:26.586Z,98518.00
2023-03-27T04:14:31.332Z,98522.52
2023-03-27T04:15:34.885Z,98519.80
2023-03-27T04:16:45.274Z,98528.05
2023-03-27T04:17:57.104Z,98526.38
2023-03-27T04:19:00.590Z,98520.93
2023-03-27T04:20:05.459Z,98527.61
2023-03-27T04:21:12.055Z,98523.84
2023-03-27T04:22:16.733Z,98535.11
2023-03-27T04:23:20.948Z,98535.85
2023-03-27T04:24:23.911Z,98527.78
2023-03-27T04:25:28.315Z,98538.80
2023-03-27T04:26:31.853Z,98530.03
2023-03-27T04:27:45.103Z,98533.09
2023-03-27T04:28:53.595Z,98531.13
2023-03-27T04:30:02.623Z,98532.52
2023-03-27T04:31:24.641Z,98535.72
2023-03-27T04:32:28.923Z,98526.09
2023-03-27T04:33:45.849Z,98532.09
2023-03-27T04:34:56.092Z,98524.01
2023-03-27T04:36:07.210Z,98528.81
2023-03-27T04:37:08.135Z,98527.52
2023-03-27T04:38:21.100Z,98534.98
2023-03-27T04:39:29.687Z,98529.32
2023-03-27T04:40:32.719Z,98526.16
2023-03-27T04:41:35.073Z,98529.22
2023-03-27T04:42:41.463Z,98526.95
2023-03-27T04:43:45.840Z,98530.30
2023-03-27T04:44:48.053Z,98523.54
2023-03-27T04:45:51.104Z,98535.52
2023-03-27T04:46:54.030Z,98528.70
2023-03-27T04:47:58.119Z,98528.33
2023-03-27T04:49:00.569Z,98533.70
2023-03-27T04:50:21.228Z,98526.81
2023-03-27T04:51:26.020Z,98530.73
2023-03-27T04:52:29.081Z,98528.76
2023-03-27T04:53:34.033Z,98522.38
2023-03-27T04:54:36.262Z,98515.41
2023-03-27T04:55:38.722Z,98522.94
2023-03-27T04:56:44.778Z,98523.23
2023-03-27T04:57:47.816Z,98525.61
2023-03-27T04:58:50.773Z,98521.27
2023-03-27T04:59:53.424Z,98516.61
2023-03-27T05:01:16.689Z,98525.13
2023-03-27T05:02:27.899Z,98526.47
2023-03-27T05:03:34.114Z,98522.17
2023-03-27T05:04:45.574Z,98523.92
2023-03-27T05:05:53.205Z,98516.91
2023-03-27T05:06:57.524Z,98524.66
2023-03-27T05:07:59.969Z,98530.44
2023-03-27T05:09:03.369Z,98530.30
2023-03-27T05:10:08.747Z,98526.34
2023-03-27T05:11:13.577Z,98524.97
2023-03-27T05:12:17.847Z,98534.86
2023-03-27T05:13:24.962Z,98539.86
2023-03-27T05:14:27.548Z,98536.21
2023-03-27T05:15:33.183Z,98536.38
2023-03-27T05:16:36.752Z,98542.19
2023-03-27T05:17:43.563Z,98545.81
2023-03-27T05:18:46.374Z,98543.14
2023-03-27T05:19:49.181Z,98542.19
2023-03-27T05:20:52.755Z,98540.20
2023-03-27T05:21:55.127Z,98542.70
2023-03-27T05:22:57.446Z,98542.88
2023-03-27T05:24:04.293Z,98545.20
2023-03-27T05:25:08.440Z,98542.02
2023-03-27T05:26:10.969Z,98548.05
2023-03-27T05:27:31.237Z,98547.19
2023-03-27T05:28:35.400Z,98541.72
2023-03-27T05:29:47.134Z,98544.47
2023-03-27T05:30:43.518Z,98540.95
2023-03-27T05:31:53.877Z,98538.83
2023-03-27T05:33:01.481Z,98541.58
2023-03-27T05:34:05.548Z,98541.78
2023-03-27T05:35:10.500Z,98545.91
2023-03-27T05:36:14.915Z,98537.16
2023-03-27T05:37:19.192Z,98542.33
2023-03-27T05:38:35.493Z,98549.48
2023-03-27T05:39:54.619Z,98549.18
2023-03-27T05:41:01.757Z,98552.13
2023-03-27T05:42:05.531Z,98551.91
2023-03-27T05:43:08.825Z,98561.34
2023-03-27T05:44:12.956Z,98556.17
2023-03-27T05:45:18.126Z,98556.77
2023-03-27T05:46:24.680Z,98563.48
2023-03-27T05:47:29.121Z,98555.32
2023-03-27T05:48:31.640Z,98559.19
2023-03-27T05:49:37.050Z,98560.55
2023-03-27T05:50:44.742Z,98569.16
2023-03-27T05:51:53.107Z,98566.58
2023-03-27T05:54:08.776Z,98559.87
2023-03-27T05:55:16.149Z,98562.80
2023-03-27T05:56:20.048Z,98558.20
2023-03-27T05:57:24.628Z,98564.59
2023-03-27T05:58:29.552Z,98563.69
2023-03-27T05:59:34.776Z,98563.50
2023-03-27T06:00:43.955Z,98563.83
2023-03-27T06:01:51.261Z,98560.91
2023-03-27T06:02:58.187Z,98558.58
2023-03-27T06:04:03.867Z,98556.32
2023-03-27T06:05:24.765Z,98562.11
2023-03-27T06:06:28.413Z,98552.81
2023-03-27T06:07:32.596Z,98553.98
2023-03-27T06:08:37.786Z,98564.25
2023-03-27T06:09:42.326Z,98555.14
2023-03-27T06:11:03.310Z,98559.94
2023-03-27T06:12:09.578Z,98557.73
2023-03-27T06:13:14.035Z,98556.73
2023-03-27T06:14:27.408Z,98550.36
2023-03-27T06:15:40.790Z,98555.30
2023-03-27T06:16:46.048Z,98551.27
2023-03-27T06:18:08.533Z,98561.77
2023-03-27T06:19:12.519Z,98555.48
2023-03-27T06:20:19.252Z,98556.57
2023-03-27T06:21:23.481Z,98558.44
2023-03-27T06:22:27.841Z,98554.33
2023-03-27T06:23:31.343Z,98555.84
2023-03-27T06:24:33.957Z,98563.27
2023-03-27T06:25:38.738Z,98560.08
2023-03-27T06:26:42.258Z,98562.10
2023-03-27T06:27:48.716Z,98561.95
2023-03-27T06:28:51.978Z,98561.75
2023-03-27T06:29:54.505Z,98564.59
2023-03-27T06:30:57.116Z,98561.53
2023-03-27T06:32:02.131Z,98566.28
2023-03-27T06:33:08.252Z,98567.13
2023-03-27T06:34:12.640Z,98564.53
2023-03-27T06:35:31.285Z,98565.27
2023-03-27T06:36:35.867Z,98567.25
2023-03-27T06:37:41.239Z,98565.27
2023-03-27T06:38:44.301Z,98564.91
2023-03-27T06:39:48.828Z,98563.27
2023-03-27T06:40:51.781Z,98572.89
2023-03-27T06:41:55.707Z,98569.44
2023-03-27T06:43:09.101Z,98569.59
2023-03-27T06:44:13.268Z,98573.45
2023-03-27T06:45:21.975Z,98567.56
2023-03-27T06:46:45.710Z,98570.82
2023-03-27T06:48:15.308Z,98567.45
2023-03-27T06:49:04.474Z,98575.59
2023-03-27T06:50:09.894Z,98568.84
2023-03-27T06:51:12.535Z,98567.66
2023-03-27T06:52:15.083Z,98570.64
2023-03-27T06:54:24.374Z,98571.95
2023-03-27T06:55:31.234Z,98575.30
2023-03-27T06:56:34.090Z,98566.89
2023-03-27T06:57:49.901Z,98561.98
2023-03-27T06:58:54.581Z,98563.56
2023-03-27T07:00:01.606Z,98569.58
2023-03-27T07:01:05.695Z,98566.50
2023-03-27T07:02:21.734Z,98567.80
2023-03-27T07:03:41.594Z,98563.99
2023-03-27T07:05:04.183Z,98567.87
2023-03-27T07:06:01.693Z,98578.81
2023-03-27T07:07:06.626Z,98563.86
2023-03-27T07:08:23.477Z,98573.44
2023-03-27T07:09:19.903Z,98573.62
2023-03-27T07:10:25.648Z,98570.01
2023-03-27T07:11:31.837Z,98574.77
2023-03-27T07:12:37.375Z,98573.91
2023-03-27T07:13:40.678Z,98576.23
2023-03-27T07:14:44.884Z,98578.83
2023-03-27T07:15:47.455Z,98582.19
2023-03-27T07:16:50.286Z,98585.16
2023-03-27T07:17:59.289Z,98577.91
2023-03-27T07:19:02.630Z,98579.75
2023-03-27T07:20:09.823Z,98587.00
2023-03-27T07:21:14.072Z,98589.81
2023-03-27T07:22:17.133Z,98582.56
2023-03-27T07:23:21.414Z,98586.09
2023-03-27T07:24:25.756Z,98583.69
2023-03-27T07:25:35.752Z,98579.59
2023-03-27T07:26:38.553Z,98581.63
2023-03-27T07:27:53.453Z,98584.13
2023-03-27T07:29:00.138Z,98582.73
2023-03-27T07:30:02.206Z,98582.94
2023-03-27T07:31:25.857Z,98585.70
2023-03-27T07:32:29.791Z,98580.81
2023-03-27T07:33:24.728Z,98585.16
2023-03-27T07:34:28.596Z,98581.27
2023-03-27T07:36:57.080Z,98583.37
2023-03-27T07:37:59.854Z,98578.64
2023-03-27T07:39:04.461Z,98581.75
2023-03-27T07:40:10.129Z,98579.25
2023-03-27T07:41:13.116Z,98576.94
2023-03-27T07:42:20.305Z,98580.49
2023-03-27T07:43:24.662Z,98577.71
2023-03-27T07:44:27.547Z,98578.06
2023-03-27T07:45:32.601Z,98571.61
2023-03-27T07:46:37.072Z,98584.43
2023-03-27T07:47:42.823Z,98583.09
2023-03-27T07:48:45.226Z,98576.22
2023-03-27T07:49:49.605Z,98582.01
2023-03-27T07:51:10.760Z,98579.97
2023-03-27T07:52:04.710Z,98583.80
2023-03-27T07:53:08.994Z,98580.31
2023-03-27T07:54:15.216Z,98595.67
2023-03-27T07:55:21.860Z,98585.38
2023-03-27T07:56:26.481Z,98586.94
2023-03-27T07:57:57.231Z,98583.41
2023-03-27T07:58:47.481Z,98589.68
2023-03-27T07:59:53.247Z,98586.55
2023-03-27T08:01:08.218Z,98584.30
2023-03-27T08:02:11.157Z,98584.48
2023-03-27T08:03:14.252Z,98585.66
2023-03-27T08:04:21.771Z,98576.33
2023-03-27T08:05:34.234Z,98576.81
2023-03-27T08:06:38.535Z,98577.02
2023-03-27T08:07:45.316Z,98583.27
2023-03-27T08:08:50.293Z,98578.38
2023-03-27T08:09:53.362Z,98578.23
2023-03-27T08:10:58.125Z,98578.53
2023-03-27T08:12:03.800Z,98573.28
2023-03-27T08:13:06.294Z,98569.45
2023-03-27T08:14:08.647Z,98570.20
2023-03-27T08:15:11.280Z,98567.31
2023-03-27T08:16:17.913Z,98569.61
2023-03-27T08:17:22.139Z,98575.01
2023-03-27T08:18:25.476Z,98574.22
2023-03-27T08:19:28.642Z,98569.86
2023-03-27T08:20:33.851Z,98561.41
2023-03-27T08:21:36.508Z,98565.70
2023-03-27T08:22:39.701Z,98571.95
2023-03-27T08:23:47.086Z,98565.69
2023-03-27T08:24:54.114Z,98573.80
2023-03-27T08:26:02.107Z,98565.69
2023-03-27T08:27:06.583Z,98561.42
2023-03-27T08:28:10.920Z,98570.48
2023-03-27T08:29:16.937Z,98571.95
2023-03-27T08:30:24.191Z,98570.80
2023-03-27T08:31:29.912Z,98575.07
2023-03-27T08:32:35.375Z,98567.11
2023-03-27T08:33:41.433Z,98569.59
2023-03-27T08:34:46.170Z,98567.30
2023-03-27T08:35:50.970Z,98572.52
2023-03-27T08:36:55.157Z,98564.20
2023-03-27T08:37:58.004Z,98567.73
2023-03-27T08:39:11.348Z,98563.77
2023-03-27T08:40:26.419Z,98570.45
2023-03-27T08:41:41.861Z,98561.49
2023-03-27T08:42:49.978Z,98565.75
2023-03-27T08:43:56.552Z,98565.16
2023-03-27T08:45:02.608Z,98563.22
2023-03-27T08:46:23.448Z,98563.59
2023-03-27T08:47:37.160Z,98567.69
2023-03-27T08:48:47.761Z,98551.52
2023-03-27T08:49:54.725Z,98566.00
2023-03-27T08:51:05.858Z,98565.05
2023-03-27T08:52:15.291Z,98569.70
2023-03-27T08:53:24.713Z,98560.97
2023-03-27T08:54:33.564Z,98560.97
2023-03-27T08:55:44.069Z,98562.14
2023-03-27T08:57:07.659Z,98567.75
2023-03-27T08:58:21.450Z,98565.73
2023-03-27T08:59:28.975Z,98565.92
2023-03-27T09:00:35.402Z,98566.17
2023-03-27T09:02:00.299Z,98558.52
2023-03-27T09:03:18.592Z,98568.62
2023-03-27T09:04:43.627Z,98568.11
2023-03-27T09:05:59.926Z,98576.55
2023-03-27T09:07:27.821Z,98564.98
2023-03-27T09:08:49.052Z,98574.30
2023-03-27T09:10:07.454Z,98560.19
2023-03-27T09:11:25.173Z,98555.72
2023-03-27T09:12:37.404Z,98559.06
2023-03-27T09:13:43.909Z,98564.28
2023-03-27T09:14:50.544Z,98554.17
2023-03-27T09:15:57.843Z,98559.92
2023-03-27T09:17:04.459Z,98557.10
2023-03-27T09:18:18.046Z,98557.61
2023-03-27T09:19:37.623Z,98547.40
2023-03-27T09:20:44.847Z,98555.34
2023-03-27T09:21:53.981Z,98559.53
2023-03-27T09:23:13.928Z,98565.88
2023-03-27T09:25:47.645Z,98563.01
2023-03-27T09:27:18.172Z,98553.56
2023-03-27T09:28:25.931Z,98565.41
2023-03-27T09:29:34.109Z,98564.46
2023-03-27T09:30:42.657Z,98559.17
2023-03-27T09:31:49.674Z,98555.38
2023-03-27T09:33:03.446Z,98555.77
2023-03-27T09:34:11.269Z,98558.73
2023-03-27T09:35:16.438Z,98556.62
2023-03-27T09:36:19.394Z,98562.79
2023-03-27T09:37:21.733Z,98559.93
2023-03-27T09:38:27.890Z,98559.97
2023-03-27T09:39:33.505Z,98555.94
2023-03-27T09:40:44.059Z,98561.64
2023-03-27T09:41:53.737Z,98558.33
2023-03-27T09:43:00.126Z,98561.42
2023-03-27T09:44:12.380Z,98556.19
2023-03-27T09:45:18.125Z,98560.95
2023-03-27T09:46:27.470Z,98560.47
2023-03-27T09:47:37.747Z,98561.20
2023-03-27T09:48:45.635Z,98557.52
2023-03-27T09:49:56.493Z,98550.98
2023-03-27T09:51:01.883Z,98553.72
2023-03-27T09:52:13.773Z,98556.93
2023-03-27T09:53:25.322Z,98551.43
2023-03-27T09:54:36.626Z,98552.25
2023-03-27T09:55:56.809Z,98551.86
2023-03-27T09:57:05.972Z,98546.58
2023-03-27T09:58:24.225Z,98545.39
2023-03-27T09:59:32.496Z,98546.88
2023-03-27T10:00:37.318Z,98541.98
2023-03-27T10:01:45.250Z,98551.00
2023-03-27T10:02:53.109Z,98550.26
2023-03-27T10:03:59.048Z,98549.30
2023-03-27T10:05:18.219Z,98555.49
2023-03-27T10:06:32.237Z,98549.60
2023-03-27T10:07:40.531Z,98543.91
2023-03-27T10:09:07.511Z,98547.94
2023-03-27T10:10:20.853Z,98546.41
2023-03-27T10:11:33.845Z,98539.72
2023-03-27T10:12:39.609Z,98539.14
2023-03-27T10:13:48.389Z,98549.23
2023-03-27T10:14:53.095Z,98544.91
2023-03-27T10:16:05.818Z,98538.12
2023-03-27T10:17:39.196Z,98533.77
2023-03-27T10:18:50.111Z,98538.78
2023-03-27T10:21:30.017Z,98539.39
2023-03-27T10:22:38.324Z,98530.28
2023-03-27T10:23:44.033Z,98531.31
2023-03-27T10:24:48.912Z,98540.77
2023-03-27T10:26:02.563Z,98536.59
2023-03-27T10:27:12.696Z,98541.27
2023-03-27T10:28:23.089Z,98540.31
2023-03-27T10:29:37.551Z,98537.44
2023-03-27T10:30:42.913Z,98542.16
2023-03-27T10:32:05.674Z,98538.78
2023-03-27T10:33:12.576Z,98535.41
2023-03-27T10:34:36.049Z,98541.17
2023-03-27T10:35:52.997Z,98537.78
2023-03-27T10:37:01.015Z,98534.92
2023-03-27T10:38:14.376Z,98535.88
2023-03-27T10:39:19.035Z,98537.87
2023-03-27T10:40:38.000Z,98535.06
2023-03-27T10:41:42.636Z,98528.92
2023-03-27T10:42:47.879Z,98529.69
2023-03-27T10:43:52.451Z,98522.16
2023-03-27T10:44:58.094Z,98526.41
2023-03-27T10:46:06.171Z,98523.78
2023-03-27T10:47:21.870Z,98524.31
2023-03-27T10:48:32.203Z,98530.26
2023-03-27T10:49:43.989Z,98522.92
2023-03-27T10:50:53.589Z,98529.83
2023-03-27T10:52:08.416Z,98541.91
2023-03-27T10:53:16.433Z,98539.59
2023-03-27T10:54:36.854Z,98533.31
2023-03-27T10:55:45.456Z,98532.36
2023-03-27T10:57:17.364Z,98527.39
2023-03-27T10:58:33.274Z,98524.20
2023-03-27T10:59:47.377Z,98528.30
2023-03-27T11:02:17.704Z,98523.77
2023-03-27T11:03:37.477Z,98521.63
2023-03-27T11:04:50.837Z,98526.88
2023-03-27T11:05:55.580Z,98527.39
2023-03-27T11:07:04.791Z,98525.45
2023-03-27T11:08:12.161Z,98526.88
2023-03-27T11:09:41.171Z,98517.16
2023-03-27T11:10:47.465Z,98525.48
2023-03-27T11:12:01.795Z,98528.05
2023-03-27T11:13:13.234Z,98522.80
2023-03-27T11:14:27.741Z,98521.14
2023-03-27T11:15:38.747Z,98520.11
2023-03-27T11:16:49.778Z,98520.73
2023-03-27T11:18:26.404Z,98521.63
2023-03-27T11:21:18.811Z,98509.17
2023-03-27T11:22:29.961Z,98512.89
2023-03-27T11:23:39.779Z,98519.70
2023-03-27T11:25:05.771Z,98514.87
2023-03-27T11:26:12.135Z,98509.58
2023-03-27T11:27:20.456Z,98502.19
2023-03-27T11:28:51.998Z,98506.84
2023-03-27T11:30:04.493Z,98498.44
2023-03-27T11:31:32.769Z,98510.91
2023-03-27T11:32:48.683Z,98503.16
2023-03-27T11:33:55.139Z,98494.86
2023-03-27T11:36:42.987Z,98493.20
2023-03-27T11:39:17.666Z,98495.42
2023-03-27T11:40:26.421Z,98509.08
2023-03-27T11:41:33.892Z,98500.63
2023-03-27T11:42:41.869Z,98503.92
2023-03-27T11:43:47.399Z,98491.34
2023-03-27T11:45:02.232Z,98504.34
2023-03-27T11:46:23.611Z,98497.84
2023-03-27T11:47:48.638Z,98497.77
2023-03-27T11:48:56.184Z,98498.13
2023-03-27T11:50:02.758Z,98498.16
2023-03-27T11:51:16.958Z,98506.84
2023-03-27T11:52:42.542Z,98493.90
2023-03-27T11:54:14.655Z,98501.52
2023-03-27T11:55:34.316Z,98498.66
2023-03-27T11:56:46.700Z,98486.51
2023-03-27T11:58:04.596Z,98491.22
2023-03-27T11:59:24.353Z,98491.98
2023-03-27T12:00:42.000Z,98495.81
2023-03-27T12:01:53.585Z,98490.15
2023-03-27T12:03:16.233Z,98490.58
2023-03-27T12:04:42.250Z,98496.35
2023-03-27T12:06:05.077Z,98489.56
2023-03-27T12:07:34.134Z,98484.61
2023-03-27T12:08:34.868Z,98483.82
2023-03-27T12:09:40.985Z,98480.52
2023-03-27T12:11:06.549Z,98481.33
2023-03-27T12:12:17.172Z,98475.11
2023-03-27T12:13:46.205Z,98475.26
2023-03-27T12:15:17.579Z,98473.30
2023-03-27T12:16:33.889Z,98466.68
2023-03-27T12:17:46.792Z,98472.20
2023-03-27T12:19:03.769Z,98479.13
2023-03-27T12:20:21.092Z,98477.76
2023-03-27T12:21:34.772Z,98478.83
2023-03-27T12:22:44.271Z,98471.09
2023-03-27T12:25:56.193Z,98468.63
2023-03-27T12:27:38.019Z,98471.39
2023-03-27T12:29:23.202Z,98478.41
2023-03-27T12:30:33.752Z,98482.36
2023-03-27T12:31:46.267Z,98481.83
2023-03-27T12:33:12.534Z,98474.66
2023-03-27T12:34:27.750Z,98475.51
2023-03-27T12:35:34.142Z,98472.45
2023-03-27T12:36:40.835Z,98471.09
2023-03-27T12:37:58.890Z,98473.31
2023-03-27T12:39:24.441Z,98476.34
2023-03-27T12:40:36.369Z,98471.80
2023-03-27T12:41:45.032Z,98466.97
2023-03-27T12:42:52.367Z,98465.30
2023-03-27T12:43:58.513Z,98467.52
2023-03-27T12:45:21.955Z,98474.72
2023-03-27T12:46:32.301Z,98473.88
2023-03-27T12:47:34.955Z,98465.58
2023-03-27T12:48:58.513Z,98463.11
2023-03-27T12:50:05.821Z,98470.28
2023-03-27T12:51:13.230Z,98464.89
2023-03-27T12:52:17.465Z,98466.14
2023-03-27T12:53:37.633Z,98465.19
2023-03-27T12:55:07.865Z,98463.52
2023-03-27T12:56:35.304Z,98462.00
2023-03-27T12:57:43.973Z,98462.67
2023-03-27T12:58:52.706Z,98459.37
2023-03-27T13:00:00.324Z,98457.55
2023-03-27T13:01:08.664Z,98457.27
2023-03-27T13:02:19.917Z,98461.11
2023-03-27T13:03:35.646Z,98448.86
2023-03-27T13:05:16.484Z,98453.50
2023-03-27T13:06:45.008Z,98457.45
2023-03-27T13:08:10.484Z,98462.73
2023-03-27T13:09:36.465Z,98457.45
2023-03-27T13:10:47.470Z,98454.52
2023-03-27T13:11:58.228Z,98451.35
2023-03-27T13:13:11.973Z,98451.41
2023-03-27T13:14:32.158Z,98449.20
2023-03-27T13:15:41.987Z,98451.22
2023-03-27T13:18:26.486Z,98448.94
2023-03-27T13:19:41.488Z,98450.89
2023-03-27T13:22:27.351Z,98448.11
2023-03-27T13:23:51.596Z,98441.52
2023-03-27T13:25:08.949Z,98446.47
2023-03-27T13:26:23.127Z,98442.31
2023-03-27T13:27:47.186Z,98443.01
2023-03-27T13:28:53.854Z,98445.64
2023-03-27T13:29:57.139Z,98440.11
2023-03-27T13:31:04.979Z,98437.34
2023-03-27T13:32:37.253Z,98434.41
2023-03-27T13:33:51.701Z,98436.69
2023-03-27T13:35:22.600Z,98434.33
2023-03-27T13:36:26.316Z,98428.33
2023-03-27T13:37:36.905Z,98442.93
2023-03-27T13:38:47.909Z,98432.36
2023-03-27T13:40:02.079Z,98436.21
2023-03-27T13:41:39.689Z,98429.88
2023-03-27T13:42:47.115Z,98433.92
2023-03-27T13:43:50.866Z,98429.02
2023-03-27T13:45:30.110Z,98423.37
2023-03-27T13:47:13.323Z,98428.48
2023-03-27T13:48:38.067Z,98424.42
2023-03-27T13:49:48.043Z,98428.32
2023-03-27T13:50:57.247Z,98419.70
2023-03-27T13:52:12.839Z,98419.45
2023-03-27T13:53:42.736Z,98420.80
2023-03-27T13:55:28.332Z,98420.43
2023-03-27T13:57:06.925Z,98427.88
2023-03-27T13:58:32.947Z,98419.13
2023-03-27T14:00:00.978Z,98422.62
2023-03-27T14:01:17.011Z,98418.41
2023-03-27T14:02:45.261Z,98419.59
2023-03-27T14:04:00.971Z,98421.85